Time;durP1;ratioP1;P1;durP2;ratioP2;P2;SDS_P1;SDS_P2;PMS_P1;PMS_P2;Temp;Humidity;BMP_temperature;BMP_pressure;BME280_temperature;BME280_humidity;BME280_pressure;Samples;Min_cycle;Max_cycle;Signal;HPM_P1;HPM_P2
2020/12/05 00:00:30;;;;;;;17.92;7.00;;;;;;;-3.69;70.35;101735.61;1704046;82;21144;-73
2020/12/05 00:02:59;;;;;;;21.60;7.90;;;;;;;-3.70;70.23;101737.43;1701988;83;21180;-72
2020/12/05 00:05:27;;;;;;;17.15;7.65;;;;;;;-3.72;70.30;101740.72;1700641;83;21276;-73
2020/12/05 00:07:56;;;;;;;19.50;7.63;;;;;;;-3.70;70.17;101746.80;1724199;82;21134;-73
2020/12/05 00:10:23;;;;;;;18.45;7.75;;;;;;;-3.69;70.68;101740.45;1723352;81;21136;-74
2020/12/05 00:12:51;;;;;;;15.90;6.53;;;;;;;-3.69;70.32;101739.11;1738245;81;21594;-71
2020/12/05 00:15:19;;;;;;;18.42;7.67;;;;;;;-3.70;70.37;101737.43;1737351;81;21647;-69
2020/12/05 00:17:47;;;;;;;15.18;6.35;;;;;;;-3.68;70.29;101735.95;1708684;82;21221;-71
2020/12/05 00:20:15;;;;;;;20.77;7.50;;;;;;;-3.66;70.41;101738.87;1703272;82;21201;-69
2020/12/05 00:22:43;;;;;;;17.87;7.10;;;;;;;-3.67;70.00;101743.02;1706947;83;21180;-75
2020/12/05 00:25:10;;;;;;;14.63;6.78;;;;;;;-3.71;69.82;101745.08;1715514;82;21160;-70
2020/12/05 00:27:38;;;;;;;20.25;7.30;;;;;;;-3.78;69.98;101747.02;1678576;84;21203;-71
2020/12/05 00:30:06;;;;;;;18.10;7.40;;;;;;;-3.83;70.31;101744.71;1704527;83;21156;-73
2020/12/05 00:32:34;;;;;;;16.75;7.17;;;;;;;-3.81;70.75;101741.42;1701327;82;21194;-72
2020/12/05 00:35:03;;;;;;;18.20;7.50;;;;;;;-3.82;70.51;101746.42;1723782;82;21600;-72
2020/12/05 00:37:38;;;;;;;16.90;7.27;;;;;;;-3.80;70.79;101746.30;1689896;82;21180;-73
2020/12/05 00:40:06;;;;;;;15.17;6.73;;;;;;;-3.82;70.80;101747.77;1710145;82;21166;-72
2020/12/05 00:42:34;;;;;;;18.57;6.55;;;;;;;-3.82;71.03;101745.09;1701630;82;21157;-73
2020/12/05 00:45:01;;;;;;;20.27;6.62;;;;;;;-3.82;71.11;101738.41;1706483;82;21176;-72
2020/12/05 00:47:29;;;;;;;15.48;6.67;;;;;;;-3.86;70.72;101741.80;1700687;82;21401;-71
2020/12/05 00:49:58;;;;;;;;;;;;;;;-3.91;71.13;101739.96;1723103;83;21160;-72
2020/12/05 00:52:26;;;;;;;15.35;6.37;;;;;;;-3.93;71.25;101741.05;1706879;82;20646;-71
2020/12/05 00:54:53;;;;;;;17.17;7.58;;;;;;;-3.92;71.55;101742.73;1720699;83;21168;-72
2020/12/05 00:57:21;;;;;;;16.02;7.03;;;;;;;-3.94;71.38;101738.00;1737138;82;21172;-71
2020/12/05 00:59:51;;;;;;;14.47;7.50;;;;;;;-3.94;71.51;101740.19;1714590;83;21117;-71
2020/12/05 01:02:18;;;;;;;17.50;7.55;;;;;;;-3.95;71.84;101730.97;1724169;81;21660;-71
2020/12/05 01:04:47;;;;;;;15.63;7.08;;;;;;;-3.96;71.82;101738.61;1741014;82;21606;-72
2020/12/05 01:07:15;;;;;;;14.70;6.50;;;;;;;-3.94;71.77;101738.00;1756455;81;21164;-71
2020/12/05 01:09:43;;;;;;;18.87;7.28;;;;;;;-3.98;72.24;101728.52;1724253;82;21161;-72
2020/12/05 01:12:10;;;;;;;16.50;7.60;;;;;;;-4.02;72.47;101722.55;1738986;82;21568;-70
2020/12/05 01:14:39;;;;;;;19.10;7.10;;;;;;;-4.02;72.64;101729.72;1721641;82;21163;-71
2020/12/05 01:17:06;;;;;;;14.28;6.58;;;;;;;-4.00;72.65;101730.47;1723546;83;21164;-72
2020/12/05 01:19:34;;;;;;;17.35;7.08;;;;;;;-4.00;72.83;101730.47;1723939;82;21143;-71
2020/12/05 01:22:02;;;;;;;16.50;6.60;;;;;;;-3.97;72.93;101728.87;1706236;84;21682;-70
2020/12/05 01:24:29;;;;;;;16.15;6.33;;;;;;;-3.94;73.08;101727.30;1707963;82;21188;-72
2020/12/05 01:26:57;;;;;;;14.00;6.72;;;;;;;-3.93;73.16;101735.70;1729859;82;21251;-70
2020/12/05 01:29:25;;;;;;;15.53;6.72;;;;;;;-3.96;73.11;101721.23;1718364;82;21140;-71
2020/12/05 01:31:53;;;;;;;16.07;6.70;;;;;;;-3.94;73.25;101726.83;1712929;82;21207;-73
2020/12/05 01:34:21;;;;;;;17.85;6.35;;;;;;;-3.89;73.10;101726.45;1724498;81;21370;-70
2020/12/05 01:36:49;;;;;;;15.15;6.60;;;;;;;-3.90;72.98;101732.80;1723769;83;21191;-69
2020/12/05 01:39:17;;;;;;;18.57;7.37;;;;;;;-3.92;73.24;101728.02;1731381;81;21169;-73
2020/12/05 01:41:45;;;;;;;19.02;6.95;;;;;;;-3.94;73.34;101724.63;1699566;83;21211;-74
2020/12/05 01:44:12;;;;;;;20.77;8.05;;;;;;;-4.04;73.67;101728.51;1721518;82;21161;-70
2020/12/05 01:46:42;;;;;;;18.48;7.72;;;;;;;-4.09;73.96;101730.69;1722756;83;21160;-73
2020/12/05 01:49:12;;;;;;;16.73;7.63;;;;;;;-4.07;74.08;101735.91;1709053;83;21184;-71
2020/12/05 01:51:40;;;;;;;17.93;7.23;;;;;;;-4.08;74.45;101736.41;1670424;84;21178;-71
2020/12/05 01:54:07;;;;;;;20.35;7.03;;;;;;;-4.10;74.43;101729.48;1698202;83;21264;-71
2020/12/05 01:56:35;;;;;;;18.70;8.08;;;;;;;-4.11;74.72;101731.78;1698960;83;21176;-70
2020/12/05 01:59:03;;;;;;;25.25;8.35;;;;;;;-4.08;74.70;101732.88;1715324;83;21164;-74
2020/12/05 02:01:31;;;;;;;22.37;8.90;;;;;;;-4.08;74.94;101734.22;1686186;84;21276;-74
2020/12/05 02:04:01;;;;;;;21.40;8.15;;;;;;;-4.07;74.73;101735.91;1708063;83;21205;-70
2020/12/05 02:06:47;;;;;;;17.67;8.03;;;;;;;-4.08;75.08;101725.72;1697776;83;21206;-74
2020/12/05 02:09:20;;;;;;;18.47;7.93;;;;;;;-4.04;75.05;101737.02;1718983;83;21150;-73
2020/12/05 02:12:06;;;;;;;19.83;8.20;;;;;;;-4.01;75.05;101738.11;1718478;81;21190;-75
2020/12/05 02:14:34;;;;;;;19.37;8.17;;;;;;;-3.99;74.99;101738.36;1718947;83;21401;-74
2020/12/05 02:17:04;;;;;;;16.82;7.55;;;;;;;-4.01;74.87;101739.45;1732438;81;21178;-73
2020/12/05 02:19:46;;;;;;;14.03;7.37;;;;;;;-4.06;74.94;101733.61;1730154;82;21569;-75
2020/12/05 02:22:31;;;;;;;18.17;7.83;;;;;;;-4.06;75.10;101740.30;1698189;83;21700;-70
2020/12/05 02:24:59;;;;;;;15.50;6.63;;;;;;;-4.09;75.02;101747.21;1721018;81;21638;-70
2020/12/05 02:27:29;;;;;;;;;;;;;;;-4.11;75.27;101746.48;1723726;81;21121;-69
2020/12/05 02:29:57;;;;;;;18.50;6.80;;;;;;;-4.09;75.42;101748.55;1722271;83;20510;-70
2020/12/05 02:32:25;;;;;;;16.20;6.72;;;;;;;-4.06;75.41;101750.52;1719852;83;21176;-70
2020/12/05 02:34:53;;;;;;;18.02;7.33;;;;;;;-4.02;75.10;101752.44;1706165;83;21719;-71
2020/12/05 02:37:24;;;;;;;14.15;6.00;;;;;;;-4.06;75.50;101749.17;1749072;82;21200;-70
2020/12/05 02:39:52;;;;;;;16.47;6.50;;;;;;;-4.08;75.41;101754.27;1719002;82;21178;-71
2020/12/05 02:42:19;;;;;;;14.98;6.25;;;;;;;-4.08;75.51;101751.60;1731071;82;21883;-69
2020/12/05 02:44:50;;;;;;;18.02;7.70;;;;;;;-4.11;75.37;101759.84;1723446;81;21275;-73
2020/12/05 02:47:18;;;;;;;15.93;7.90;;;;;;;-4.13;75.32;101755.97;1723635;83;21176;-74
2020/12/05 02:49:46;;;;;;;17.52;6.80;;;;;;;-4.14;75.26;101759.59;1724854;82;21153;-70
2020/12/05 02:52:14;;;;;;;21.45;8.45;;;;;;;-4.20;75.35;101765.91;1727998;82;21157;-70
2020/12/05 02:54:44;;;;;;;20.40;8.07;;;;;;;-4.24;75.58;101761.27;1718743;82;21136;-69
2020/12/05 02:57:13;;;;;;;17.40;7.67;;;;;;;-4.23;75.80;101765.66;1728993;82;21642;-69
2020/12/05 02:59:41;;;;;;;14.43;7.05;;;;;;;-4.22;75.47;101767.83;1705807;82;21192;-69
2020/12/05 03:02:08;;;;;;;15.30;6.83;;;;;;;-4.24;75.51;101776.45;1706118;84;21643;-69
2020/12/05 03:04:36;;;;;;;14.18;6.22;;;;;;;-4.21;75.58;101778.90;1726872;82;21176;-70
2020/12/05 03:07:05;;;;;;;18.27;7.17;;;;;;;-4.18;75.31;101776.00;1724087;82;21144;-74
2020/12/05 03:09:33;;;;;;;16.02;6.75;;;;;;;-4.20;74.71;101781.44;1729622;82;21215;-75
2020/12/05 03:12:01;;;;;;;16.23;6.92;;;;;;;-4.27;74.93;101778.87;1707610;82;21152;-75
2020/12/05 03:14:29;;;;;;;21.60;8.25;;;;;;;-4.26;75.26;101774.39;1748667;82;21270;-70
2020/12/05 03:16:58;;;;;;;16.20;7.20;;;;;;;-4.24;75.20;101780.46;1718546;83;21156;-75
2020/12/05 03:19:26;;;;;;;17.60;7.45;;;;;;;-4.20;75.20;101788.12;1698928;83;21177;-70
2020/12/05 03:21:54;;;;;;;16.27;7.08;;;;;;;-4.22;75.53;101789.21;1723831;81;21170;-72
2020/12/05 03:24:22;;;;;;;17.15;7.70;;;;;;;-4.24;75.80;101781.80;1723920;82;21200;-74
2020/12/05 03:26:49;;;;;;;17.92;7.30;;;;;;;-4.29;76.11;101790.65;1704789;82;21196;-69
2020/12/05 03:29:17;;;;;;;19.32;7.40;;;;;;;-4.29;76.33;101787.50;1711425;83;21632;-73
2020/12/05 03:31:52;;;;;;;17.98;7.85;;;;;;;-4.31;76.53;101792.59;1710015;82;21142;-70
2020/12/05 03:34:18;;;;;;;16.17;7.30;;;;;;;-4.32;76.76;101793.07;1707520;83;21137;-70
2020/12/05 03:36:46;;;;;;;17.05;7.25;;;;;;;-4.30;76.90;101796.98;1716987;82;21134;-71
2020/12/05 03:39:14;;;;;;;16.12;7.42;;;;;;;-4.29;76.76;101801.34;1706306;83;21137;-71
2020/12/05 03:41:42;;;;;;;17.65;7.05;;;;;;;-4.31;76.78;101801.47;1721378;82;21450;-71
2020/12/05 03:44:10;;;;;;;16.65;7.40;;;;;;;-4.31;76.97;101796.61;1723415;82;22037;-75
2020/12/05 03:46:37;;;;;;;14.45;7.15;;;;;;;-4.35;76.86;101812.52;1749144;81;21163;-70
2020/12/05 03:49:05;;;;;;;17.02;7.53;;;;;;;-4.37;77.08;101800.58;1722083;82;21173;-73
2020/12/05 03:51:33;;;;;;;15.45;7.03;;;;;;;-4.37;77.25;101811.75;1696890;83;21620;-73
2020/12/05 03:54:01;;;;;;;18.75;7.83;;;;;;;-4.43;77.28;101808.22;1689599;82;21118;-72
2020/12/05 03:56:29;;;;;;;16.60;7.22;;;;;;;-4.47;77.34;101813.41;1735832;82;21231;-72
2020/12/05 03:58:57;;;;;;;16.50;7.05;;;;;;;-4.48;77.74;101817.06;1709164;82;21243;-71
2020/12/05 04:01:25;;;;;;;15.68;6.83;;;;;;;-4.48;77.56;101811.24;1734908;82;21656;-72
2020/12/05 04:03:53;;;;;;;16.05;7.58;;;;;;;-4.47;77.75;101813.41;1713504;82;21619;-73
2020/12/05 04:06:21;;;;;;;15.65;7.50;;;;;;;-4.46;77.62;101815.98;1729810;82;21258;-75
2020/12/05 04:08:49;;;;;;;17.80;7.20;;;;;;;-4.50;77.71;101822.50;1718710;82;21191;-75
2020/12/05 04:11:17;;;;;;;15.30;7.17;;;;;;;-4.53;77.68;101818.75;1731669;82;21215;-71
2020/12/05 04:13:45;;;;;;;17.65;7.42;;;;;;;-4.55;77.79;101821.52;1726365;82;21292;-71
2020/12/05 04:16:12;;;;;;;14.95;6.55;;;;;;;-4.53;77.87;101816.08;1735379;82;21295;-70
2020/12/05 04:18:40;;;;;;;17.17;7.78;;;;;;;-4.53;77.65;101814.23;1717048;82;21158;-74
2020/12/05 04:21:09;;;;;;;14.73;6.87;;;;;;;-4.54;77.67;101819.70;1706167;84;21172;-69
2020/12/05 04:23:37;;;;;;;16.03;7.07;;;;;;;-4.57;78.02;101824.79;1730821;81;21145;-70
2020/12/05 04:26:05;;;;;;;16.12;7.53;;;;;;;-4.62;77.80;101817.59;1718967;83;21179;-73
2020/12/05 04:28:33;;;;;;;15.95;7.20;;;;;;;-4.70;78.04;101822.64;1719665;83;21158;-69
2020/12/05 04:31:01;;;;;;;18.73;7.87;;;;;;;-4.71;78.06;101817.42;1718852;81;21166;-71
2020/12/05 04:33:28;;;;;;;17.85;7.22;;;;;;;-4.75;77.72;101818.12;1719105;83;21289;-69
2020/12/05 04:36:00;;;;;;;18.83;7.90;;;;;;;-4.77;77.77;101817.39;1727212;81;21172;-75
2020/12/05 04:38:28;;;;;;;16.00;7.53;;;;;;;-4.72;77.59;101825.06;1722798;82;21168;-69
2020/12/05 04:40:57;;;;;;;;;;;;;;;-4.70;77.50;101831.99;1721020;81;21144;-75
2020/12/05 04:43:25;;;;;;;19.20;7.23;;;;;;;-4.69;77.40;101831.04;1721079;83;20603;-74
2020/12/05 04:45:54;;;;;;;;;;;;;;;-4.65;77.36;101824.97;1722215;81;21162;-70
2020/12/05 04:48:21;;;;;;;15.85;6.78;;;;;;;-4.62;76.86;101826.09;1720166;82;20186;-74
2020/12/05 04:50:49;;;;;;;14.68;6.85;;;;;;;-4.61;76.91;101828.67;1721695;82;21168;-70
2020/12/05 04:53:19;;;;;;;20.77;7.58;;;;;;;-4.59;76.79;101828.54;1748992;82;21204;-68
2020/12/05 04:55:47;;;;;;;21.47;7.97;;;;;;;-4.59;76.86;101832.07;1730512;81;21602;-69
2020/12/05 04:58:20;;;;;;;16.55;7.37;;;;;;;-4.56;76.72;101835.00;1740144;82;21674;-67
2020/12/05 05:00:52;;;;;;;17.03;7.57;;;;;;;-4.54;76.89;101830.39;1697886;83;21204;-66
2020/12/05 05:03:23;;;;;;;18.50;7.37;;;;;;;-4.56;76.85;101833.66;1698570;84;21267;-75
2020/12/05 05:05:53;;;;;;;16.07;7.60;;;;;;;-4.57;77.14;101834.14;1705704;83;21620;-73
2020/12/05 05:08:26;;;;;;;18.77;7.57;;;;;;;-4.52;77.18;101830.64;1670834;84;21218;-70
2020/12/05 05:11:12;;;;;;;18.60;7.93;;;;;;;-4.45;77.24;101832.88;1698505;84;21153;-73
2020/12/05 05:14:00;;;;;;;17.37;7.23;;;;;;;-4.42;77.22;101825.94;1698630;84;21251;-73
2020/12/05 05:16:28;;;;;;;19.23;7.70;;;;;;;-4.40;77.47;101828.04;1698462;83;21303;-74
2020/12/05 05:18:59;;;;;;;16.37;7.00;;;;;;;-4.38;77.49;101820.75;1699030;83;21171;-70
2020/12/05 05:21:40;;;;;;;16.97;7.57;;;;;;;-4.35;77.71;101817.86;1670431;84;21571;-69
2020/12/05 05:24:16;;;;;;;21.77;7.80;;;;;;;-4.37;77.44;101810.41;1734926;81;21260;-69
2020/12/05 05:26:52;;;;;;;17.20;7.87;;;;;;;-4.38;77.46;101804.72;1751003;80;21160;-74
2020/12/05 05:29:30;;;;;;;19.13;7.90;;;;;;;-4.40;77.46;101814.67;1738439;82;21722;-70
2020/12/05 05:32:05;;;;;;;16.27;7.50;;;;;;;-4.53;78.04;101814.73;1723779;83;21208;-74
2020/12/05 05:34:27;;;;;;;19.27;8.60;;;;;;;-4.54;78.25;101808.53;1723137;82;21176;-75
2020/12/05 05:36:56;;;;;;;19.33;7.20;;;;;;;-4.50;78.47;101812.67;1735807;82;21192;-69
2020/12/05 05:39:24;;;;;;;17.80;7.70;;;;;;;-4.47;78.32;101811.59;1731969;81;21543;-67
2020/12/05 05:41:54;;;;;;;15.20;7.27;;;;;;;-4.50;78.71;101814.48;1743938;82;21204;-73
2020/12/05 05:44:27;;;;;;;20.63;8.37;;;;;;;-4.48;78.80;101809.91;1728720;81;21268;-73
2020/12/05 05:46:56;;;;;;;18.60;7.30;;;;;;;-4.45;78.76;101804.81;1737368;82;21640;-74
2020/12/05 05:49:31;;;;;;;20.77;8.48;;;;;;;-4.44;78.80;101817.19;1715737;82;21168;-70
2020/12/05 05:52:01;;;;;;;21.73;8.50;;;;;;;-4.42;78.93;101810.77;1733793;82;21207;-72
2020/12/05 05:54:38;;;;;;;19.83;7.73;;;;;;;-4.38;78.71;101822.09;1729273;82;21164;-70
2020/12/05 05:57:13;;;;;;;20.97;8.87;;;;;;;-4.35;78.71;101823.20;1730434;83;21209;-71
2020/12/05 05:59:45;;;;;;;24.27;8.80;;;;;;;-4.33;78.65;101818.59;1718040;82;21158;-72
2020/12/05 06:02:14;;;;;;;23.97;9.60;;;;;;;-4.30;78.52;101818.37;1722800;83;21138;-74
2020/12/05 06:04:45;;;;;;;24.17;9.20;;;;;;;-4.33;78.43;101822.59;1722463;82;21188;-75
2020/12/05 06:07:17;;;;;;;23.07;9.53;;;;;;;-4.32;78.49;101823.81;1704539;83;21202;-74
2020/12/05 06:09:51;;;;;;;23.50;10.00;;;;;;;-4.31;78.47;101830.02;1725208;81;21232;-73
2020/12/05 06:12:28;;;;;;;23.07;10.17;;;;;;;-4.30;78.29;101830.39;1702080;83;21605;-74
2020/12/05 06:14:56;;;;;;;22.77;9.03;;;;;;;-4.29;78.48;101830.74;1713439;82;21192;-75
2020/12/05 06:17:24;;;;;;;21.27;9.15;;;;;;;-4.26;78.41;101826.03;1749302;82;21144;-74
2020/12/05 06:19:54;;;;;;;28.17;9.47;;;;;;;-4.25;78.23;101826.37;1722649;82;21163;-74
2020/12/05 06:22:44;;;;;;;24.63;9.27;;;;;;;-4.21;78.35;101818.52;1698100;84;21200;-74
2020/12/05 06:25:15;;;;;;;25.97;9.03;;;;;;;-4.16;78.00;101816.35;1702972;83;21674;-70
2020/12/05 06:27:46;;;;;;;21.23;8.53;;;;;;;-4.13;78.08;101821.95;1710965;83;21136;-75
2020/12/05 06:30:13;;;;;;;21.30;9.10;;;;;;;-4.13;77.81;101807.24;1721852;83;21268;-74
2020/12/05 06:32:46;;;;;;;20.97;10.23;;;;;;;-4.15;77.89;101807.85;1699938;83;21288;-73
2020/12/05 06:35:23;;;;;;;21.30;8.40;;;;;;;-4.13;77.76;101812.11;1710404;83;21259;-75
2020/12/05 06:37:54;;;;;;;21.27;9.07;;;;;;;-4.08;77.81;101834.48;1713944;83;21161;-76
2020/12/05 06:40:22;;;;;;;24.10;9.30;;;;;;;-4.09;77.71;101835.44;1703041;83;21675;-75
2020/12/05 06:42:54;;;;;;;21.30;9.10;;;;;;;-4.09;77.97;101839.45;1707565;83;21631;-70
2020/12/05 06:45:34;;;;;;;20.37;9.33;;;;;;;-4.08;77.89;101842.51;1727612;83;21140;-74
2020/12/05 06:48:14;;;;;;;19.87;8.07;;;;;;;-4.05;78.09;101837.76;1697852;83;21164;-74
2020/12/05 06:50:47;;;;;;;21.73;8.43;;;;;;;-4.12;78.32;101844.55;1698726;84;21541;-75
2020/12/05 06:53:26;;;;;;;19.63;8.27;;;;;;;-4.11;78.25;101847.59;1724519;83;21160;-71
2020/12/05 06:55:56;;;;;;;17.73;8.40;;;;;;;-4.03;78.36;101856.38;1727626;83;21140;-71
2020/12/05 06:58:29;;;;;;;20.65;8.05;;;;;;;-3.94;78.01;101858.34;1726339;83;21132;-71
2020/12/05 07:00:58;;;;;;;17.33;8.10;;;;;;;-3.84;78.05;101864.70;1712461;83;21148;-73
2020/12/05 07:03:27;;;;;;;21.77;8.68;;;;;;;-3.74;77.66;101861.69;1720244;83;21204;-70
2020/12/05 07:05:56;;;;;;;22.03;8.43;;;;;;;-3.70;77.57;101859.16;1737106;82;21752;-70
2020/12/05 07:08:41;;;;;;;17.77;8.03;;;;;;;-3.67;77.10;101864.28;1713607;82;21596;-76
2020/12/05 07:11:16;;;;;;;18.30;8.53;;;;;;;-3.68;77.08;101867.06;1715229;82;21344;-74
2020/12/05 07:13:49;;;;;;;19.07;8.50;;;;;;;-3.62;77.15;101870.13;1705776;82;21611;-70
2020/12/05 07:16:24;;;;;;;19.57;8.00;;;;;;;-3.51;77.13;101868.80;1727543;83;21168;-69
2020/12/05 07:18:57;;;;;;;18.83;8.60;;;;;;;-3.43;76.72;101871.73;1700822;83;21170;-70
2020/12/05 07:21:28;;;;;;;21.57;8.23;;;;;;;-3.39;76.50;101869.17;1711416;83;21211;-73
2020/12/05 07:23:56;;;;;;;23.20;8.37;;;;;;;-3.30;76.38;101881.00;1715289;83;21170;-74
2020/12/05 07:26:23;;;;;;;21.30;8.18;;;;;;;-3.24;76.32;101873.33;1721559;83;21168;-73
2020/12/05 07:28:53;;;;;;;20.40;8.05;;;;;;;-3.17;76.22;101876.88;1708885;83;21719;-71
2020/12/05 07:31:21;;;;;;;18.20;7.90;;;;;;;-3.12;75.48;101874.69;1699451;83;21580;-74
2020/12/05 07:33:49;;;;;;;18.48;7.20;;;;;;;-3.10;75.26;101883.44;1714782;83;21156;-74
2020/12/05 07:36:17;;;;;;;16.42;7.90;;;;;;;-3.11;74.80;101879.91;1699680;83;21812;-74
2020/12/05 07:38:46;;;;;;;17.37;7.70;;;;;;;-3.11;74.33;101883.09;1698852;83;21517;-70
2020/12/05 07:41:17;;;;;;;16.77;7.27;;;;;;;-3.15;74.40;101882.47;1712935;83;21585;-71
2020/12/05 07:43:45;;;;;;;19.17;7.50;;;;;;;-3.19;73.35;101885.52;1706601;83;21282;-71
2020/12/05 07:46:14;;;;;;;20.57;7.72;;;;;;;-3.25;73.85;101889.53;1701906;83;21184;-74
2020/12/05 07:48:42;;;;;;;17.73;7.23;;;;;;;-3.22;73.93;101890.15;1698109;84;21614;-73
2020/12/05 07:51:13;;;;;;;14.45;6.17;;;;;;;-3.28;73.16;101884.41;1724979;83;21196;-75
2020/12/05 07:53:42;;;;;;;16.90;7.03;;;;;;;-3.36;72.62;101889.50;1748044;82;21255;-72
2020/12/05 07:56:20;;;;;;;16.13;7.00;;;;;;;-3.39;72.67;101894.60;1734552;81;21650;-73
2020/12/05 07:58:56;;;;;;;23.35;8.90;;;;;;;-3.41;72.70;101891.20;1726200;82;21129;-72
2020/12/05 08:01:58;;;;;;;37.17;8.27;;;;;;;-3.39;72.99;101885.23;1723129;81;21213;-75
2020/12/05 08:04:56;;;;;;;17.97;7.93;;;;;;;-3.37;72.70;101888.67;1723550;83;21594;-74
2020/12/05 08:07:37;;;;;;;19.67;7.43;;;;;;;-3.36;72.45;101887.68;1732059;82;21200;-74
2020/12/05 08:10:16;;;;;;;20.13;7.90;;;;;;;-3.34;72.42;101885.73;1738418;82;21537;-72
2020/12/05 08:13:20;;;;;;;21.03;8.17;;;;;;;-3.31;71.27;101884.16;1707999;82;21152;-74
2020/12/05 08:16:03;;;;;;;18.37;7.50;;;;;;;-3.31;71.38;101885.49;1693952;84;21165;-72
2020/12/05 08:18:37;;;;;;;18.50;7.17;;;;;;;-3.30;70.36;101884.53;1723110;82;21212;-73
2020/12/05 08:21:06;;;;;;;16.83;7.17;;;;;;;-3.31;70.21;101887.31;1706764;82;21171;-71
2020/12/05 08:23:39;;;;;;;18.90;7.17;;;;;;;-3.32;69.76;101891.84;1727963;82;21156;-72
2020/12/05 08:26:13;;;;;;;23.57;7.73;;;;;;;-3.35;69.49;101897.42;1716126;82;21176;-73
2020/12/05 08:28:42;;;;;;;19.37;7.90;;;;;;;-3.36;69.44;101887.68;1727823;82;21504;-77
2020/12/05 08:31:12;;;;;;;21.50;7.53;;;;;;;-3.37;69.51;101890.01;1714928;82;21231;-75
2020/12/05 08:33:48;;;;;;;20.20;7.87;;;;;;;-3.35;69.30;101885.38;1715645;82;21199;-74
2020/12/05 08:36:34;;;;;;;17.83;6.90;;;;;;;-3.33;68.95;101884.77;1696498;82;21143;-74
2020/12/05 08:39:05;;;;;;;21.90;6.67;;;;;;;-3.36;68.44;101884.14;1725992;82;21306;-71
2020/12/05 08:41:45;;;;;;;19.33;7.37;;;;;;;-3.38;68.78;101878.92;1726700;82;21171;-75
2020/12/05 08:44:18;;;;;;;20.80;7.20;;;;;;;-3.33;68.70;101882.09;1717791;82;21592;-74
2020/12/05 08:46:45;;;;;;;18.67;7.20;;;;;;;-3.26;67.32;101881.97;1723730;83;21148;-73
2020/12/05 08:49:18;;;;;;;18.02;7.03;;;;;;;-3.21;67.49;101882.94;1716316;81;21166;-79
2020/12/05 08:51:48;;;;;;;20.23;7.27;;;;;;;-3.16;66.86;101883.44;1712911;83;21236;-76
2020/12/05 08:54:16;;;;;;;21.97;7.80;;;;;;;-3.07;66.53;101887.22;1704807;83;21166;-75
2020/12/05 08:56:45;;;;;;;21.97;7.43;;;;;;;-2.99;65.78;101891.49;1698495;84;21173;-75
2020/12/05 08:59:19;;;;;;;23.10;7.30;;;;;;;-2.90;65.38;101888.93;1719270;82;21138;-76
2020/12/05 09:01:47;;;;;;;22.73;6.87;;;;;;;-2.86;63.23;101883.67;1715786;82;21170;-76
2020/12/05 09:04:28;;;;;;;19.67;6.43;;;;;;;-2.88;62.35;101880.76;1697952;83;21157;-75
2020/12/05 09:07:13;;;;;;;29.40;6.70;;;;;;;-2.90;60.16;101878.22;1684570;83;21218;-78
2020/12/05 09:09:41;;;;;;;15.77;6.03;;;;;;;-2.89;58.68;101877.73;1695920;83;21181;-78
2020/12/05 09:12:11;;;;;;;17.90;6.60;;;;;;;-2.93;58.63;101878.93;1709651;83;21184;-75
2020/12/05 09:14:39;;;;;;;22.20;6.30;;;;;;;-2.90;58.67;101883.57;1703415;83;21184;-78
2020/12/05 09:17:28;;;;;;;17.70;6.50;;;;;;;-2.80;58.79;101886.36;1702748;83;21234;-78
2020/12/05 09:20:13;;;;;;;17.47;6.13;;;;;;;-2.74;58.66;101885.88;1704824;83;21156;-76
2020/12/05 09:22:53;;;;;;;17.67;5.60;;;;;;;-2.66;58.50;101889.62;1695081;83;21166;-78
2020/12/05 09:25:28;;;;;;;38.90;7.10;;;;;;;-2.71;56.12;101885.13;1703242;83;21154;-76
2020/12/05 09:27:57;;;;;;;14.40;5.10;;;;;;;-2.70;56.29;101878.80;1707198;83;21813;-77
2020/12/05 09:30:27;;;;;;;14.60;5.43;;;;;;;-2.66;56.11;101886.12;1709537;83;21165;-77
2020/12/05 09:32:55;;;;;;;24.07;6.27;;;;;;;-2.64;55.89;101882.82;1705192;83;21184;-74
2020/12/05 09:35:25;;;;;;;16.50;6.80;;;;;;;-2.60;55.45;101877.56;1704099;83;21634;-77
2020/12/05 09:37:54;;;;;;;16.50;6.13;;;;;;;-2.58;55.64;101876.98;1702707;83;21632;-75
2020/12/05 09:40:21;;;;;;;17.17;6.40;;;;;;;-2.50;55.19;101874.50;1706393;83;21164;-76
2020/12/05 09:42:49;;;;;;;16.90;6.20;;;;;;;-2.44;54.70;101878.03;1702524;83;21702;-74
2020/12/05 09:45:17;;;;;;;18.37;6.58;;;;;;;-2.41;53.97;101873.77;1709704;83;21124;-74
2020/12/05 09:47:45;;;;;;;16.17;6.33;;;;;;;-2.37;54.85;101875.20;1711215;83;21168;-74
2020/12/05 09:50:14;;;;;;;17.17;6.17;;;;;;;-2.34;54.90;101876.30;1713515;82;21295;-72
2020/12/05 09:52:43;;;;;;;16.90;6.93;;;;;;;-2.29;54.48;101874.58;1705905;83;21223;-72
2020/12/05 09:55:11;;;;;;;27.87;7.50;;;;;;;-2.24;54.59;101877.25;1706882;83;21212;-70
2020/12/05 09:57:39;;;;;;;23.50;8.23;;;;;;;-2.21;54.23;101877.00;1705026;83;21817;-70
2020/12/05 10:00:08;;;;;;;;;;;;;;;-2.17;53.93;101865.02;1712742;83;21614;-74
2020/12/05 10:02:37;;;;;;;23.40;7.57;;;;;;;-2.12;54.13;101868.17;1701539;83;20188;-74
2020/12/05 10:05:09;;;;;;;;;;;;;;;-2.09;53.66;101873.77;1730059;82;21703;-74
2020/12/05 10:07:38;;;;;;;19.03;6.97;;;;;;;-2.05;53.93;101871.22;1736580;81;20189;-70
2020/12/05 10:10:07;;;;;;;16.60;5.60;;;;;;;-2.02;53.87;101874.47;1733111;81;21204;-73
2020/12/05 10:12:35;;;;;;;19.67;6.77;;;;;;;-1.97;53.61;101874.94;1711409;83;21252;-74
2020/12/05 10:15:05;;;;;;;17.98;6.58;;;;;;;-1.95;53.43;101870.30;1713682;81;21162;-70
2020/12/05 10:17:33;;;;;;;23.00;6.47;;;;;;;-1.94;52.56;101859.93;1701739;83;21161;-74
2020/12/05 10:20:01;;;;;;;17.13;6.13;;;;;;;-1.94;52.75;101861.27;1722175;81;21175;-71
2020/12/05 10:22:29;;;;;;;19.00;6.10;;;;;;;-1.89;52.41;101858.68;1713323;83;21596;-71
2020/12/05 10:24:57;;;;;;;17.77;6.45;;;;;;;-1.93;51.43;101866.16;1723160;81;21125;-73
2020/12/05 10:27:25;;;;;;;22.65;8.25;;;;;;;-1.94;51.17;101861.76;1736936;82;21148;-73
2020/12/05 10:29:53;;;;;;;;;;;;;;;-1.92;51.28;101858.97;1732048;81;21166;-75
2020/12/05 10:32:21;;;;;;;22.67;6.03;;;;;;;-1.88;50.76;101864.42;1724294;82;20259;-75
2020/12/05 10:34:49;;;;;;;19.27;6.12;;;;;;;-1.85;49.28;101859.66;1664492;82;21287;-76
2020/12/05 10:37:16;;;;;;;14.70;6.30;;;;;;;-1.81;49.19;101862.43;1718970;82;21473;-75
2020/12/05 10:39:44;;;;;;;26.35;6.75;;;;;;;-1.78;49.38;101859.98;1713032;82;21627;-75
2020/12/05 10:42:12;;;;;;;16.02;6.08;;;;;;;-1.78;48.51;101866.69;1721222;82;21200;-75
2020/12/05 10:44:42;;;;;;;17.77;5.90;;;;;;;-1.78;47.36;101866.69;1725776;82;21205;-75
2020/12/05 10:47:10;;;;;;;18.12;6.45;;;;;;;-1.74;47.85;101869.46;1724843;82;21200;-74
2020/12/05 10:49:37;;;;;;;36.38;8.55;;;;;;;-1.71;47.81;101874.58;1726480;82;21693;-74
2020/12/05 10:52:05;;;;;;;20.10;6.10;;;;;;;-1.69;47.54;101876.14;1706470;82;21193;-76
2020/12/05 10:54:33;;;;;;;21.57;6.50;;;;;;;-1.69;47.58;101872.12;1705610;84;21287;-74
2020/12/05 10:57:01;;;;;;;21.48;7.15;;;;;;;-1.62;47.95;101876.50;1719148;83;21151;-73
2020/12/05 10:59:29;;;;;;;19.80;6.72;;;;;;;-1.58;47.43;101883.30;1700535;84;21153;-76
2020/12/05 11:01:56;;;;;;;29.20;6.83;;;;;;;-1.55;47.60;101880.36;1704859;83;21651;-75
2020/12/05 11:04:24;;;;;;;33.53;6.40;;;;;;;-1.53;47.20;101874.36;1702819;83;21215;-75
2020/12/05 11:06:52;;;;;;;16.93;5.70;;;;;;;-1.50;46.85;101882.16;1700386;83;21133;-75
2020/12/05 11:09:22;;;;;;;19.40;5.77;;;;;;;-1.50;46.85;101882.16;1678614;83;21141;-74
2020/12/05 11:11:50;;;;;;;14.95;5.78;;;;;;;-1.49;46.44;101877.13;1710713;83;21196;-76
2020/12/05 11:14:17;;;;;;;20.15;6.35;;;;;;;-1.46;45.89;101879.55;1710277;82;21167;-75
2020/12/05 11:16:45;;;;;;;17.80;6.05;;;;;;;-1.44;45.94;101885.64;1723990;82;21775;-75
2020/12/05 11:19:13;;;;;;;28.85;6.97;;;;;;;-1.44;45.61;101882.47;1723450;83;21234;-74
2020/12/05 11:21:44;;;;;;;16.73;6.03;;;;;;;-1.46;45.67;101884.44;1701856;82;21279;-74
2020/12/05 11:24:12;;;;;;;17.10;5.63;;;;;;;-1.44;45.48;101893.69;1723541;83;21225;-76
2020/12/05 11:26:39;;;;;;;12.40;4.55;;;;;;;-1.43;45.10;101884.67;1701131;83;21177;-75
2020/12/05 11:29:07;;;;;;;22.82;5.28;;;;;;;-1.46;44.06;101887.61;1718812;82;21160;-75
2020/12/05 11:31:37;;;;;;;13.07;5.33;;;;;;;-1.50;44.88;101883.50;1700668;83;21145;-75
2020/12/05 11:34:04;;;;;;;19.15;5.47;;;;;;;-1.53;45.35;101875.22;1706222;82;21216;-75